sensor_id;sensor_type;location;lat;lon;timestamp;P1;durP1;ratioP1;P2;durP2;ratioP2
62463;SDS011;48512;48.552;9.380;2023-02-28T00:00:08;9.23;;;5.57;;
62463;SDS011;48512;48.552;9.380;2023-02-28T00:02:39;12.00;;;5.50;;
62463;SDS011;48512;48.552;9.380;2023-02-28T00:05:06;6.25;;;4.53;;
62463;SDS011;48512;48.552;9.380;2023-02-28T00:07:33;6.55;;;4.40;;
62463;SDS011;48512;48.552;9.380;2023-02-28T00:09:58;7.57;;;4.55;;
62463;SDS011;48512;48.552;9.380;2023-02-28T00:12:25;7.45;;;4.88;;
62463;SDS011;48512;48.552;9.380;2023-02-28T00:14:51;7.22;;;4.80;;
62463;SDS011;48512;48.552;9.380;2023-02-28T00:17:16;8.68;;;4.57;;
62463;SDS011;48512;48.552;9.380;2023-02-28T00:19:49;6.15;;;4.05;;
62463;SDS011;48512;48.552;9.380;2023-02-28T00:22:15;6.10;;;4.32;;
62463;SDS011;48512;48.552;9.380;2023-02-28T00:24:42;8.00;;;4.53;;
62463;SDS011;48512;48.552;9.380;2023-02-28T00:27:08;9.70;;;5.00;;
62463;SDS011;48512;48.552;9.380;2023-02-28T00:29:33;5.80;;;4.32;;
62463;SDS011;48512;48.552;9.380;2023-02-28T00:31:58;10.35;;;4.72;;
62463;SDS011;48512;48.552;9.380;2023-02-28T00:34:24;8.00;;;5.00;;
62463;SDS011;48512;48.552;9.380;2023-02-28T00:36:49;10.75;;;5.00;;
62463;SDS011;48512;48.552;9.380;2023-02-28T00:39:15;7.35;;;4.28;;
62463;SDS011;48512;48.552;9.380;2023-02-28T00:41:41;8.63;;;4.68;;
62463;SDS011;48512;48.552;9.380;2023-02-28T00:44:06;7.10;;;4.20;;
62463;SDS011;48512;48.552;9.380;2023-02-28T00:46:32;8.27;;;5.20;;
62463;SDS011;48512;48.552;9.380;2023-02-28T00:48:57;10.38;;;4.45;;
62463;SDS011;48512;48.552;9.380;2023-02-28T00:51:23;8.15;;;4.75;;
62463;SDS011;48512;48.552;9.380;2023-02-28T00:53:48;7.10;;;4.55;;
62463;SDS011;48512;48.552;9.380;2023-02-28T00:56:13;8.13;;;4.63;;
62463;SDS011;48512;48.552;9.380;2023-02-28T00:58:39;7.38;;;4.63;;
62463;SDS011;48512;48.552;9.380;2023-02-28T01:01:05;6.15;;;4.47;;
62463;SDS011;48512;48.552;9.380;2023-02-28T01:03:31;10.50;;;4.82;;
62463;SDS011;48512;48.552;9.380;2023-02-28T01:05:56;8.85;;;4.72;;
62463;SDS011;48512;48.552;9.380;2023-02-28T01:08:22;9.50;;;4.80;;
62463;SDS011;48512;48.552;9.380;2023-02-28T01:10:48;8.45;;;4.75;;
62463;SDS011;48512;48.552;9.380;2023-02-28T01:13:13;7.82;;;4.95;;
62463;SDS011;48512;48.552;9.380;2023-02-28T01:15:43;6.75;;;4.80;;
62463;SDS011;48512;48.552;9.380;2023-02-28T01:18:13;7.18;;;4.50;;
62463;SDS011;48512;48.552;9.380;2023-02-28T01:20:39;7.70;;;4.80;;
62463;SDS011;48512;48.552;9.380;2023-02-28T01:23:04;8.60;;;5.40;;
62463;SDS011;48512;48.552;9.380;2023-02-28T01:25:30;13.00;;;5.25;;
62463;SDS011;48512;48.552;9.380;2023-02-28T01:27:55;11.43;;;5.28;;
62463;SDS011;48512;48.552;9.380;2023-02-28T01:30:21;9.80;;;5.32;;
62463;SDS011;48512;48.552;9.380;2023-02-28T01:32:46;7.47;;;4.50;;
62463;SDS011;48512;48.552;9.380;2023-02-28T01:35:12;10.57;;;5.45;;
62463;SDS011;48512;48.552;9.380;2023-02-28T01:37:37;9.80;;;4.95;;
62463;SDS011;48512;48.552;9.380;2023-02-28T01:40:03;7.78;;;4.75;;
62463;SDS011;48512;48.552;9.380;2023-02-28T01:42:29;7.32;;;5.10;;
62463;SDS011;48512;48.552;9.380;2023-02-28T01:44:55;10.00;;;5.10;;
62463;SDS011;48512;48.552;9.380;2023-02-28T01:47:29;9.45;;;4.28;;
62463;SDS011;48512;48.552;9.380;2023-02-28T01:49:58;12.23;;;5.55;;
62463;SDS011;48512;48.552;9.380;2023-02-28T01:52:25;8.65;;;4.63;;
62463;SDS011;48512;48.552;9.380;2023-02-28T01:54:52;7.28;;;4.50;;
62463;SDS011;48512;48.552;9.380;2023-02-28T01:57:21;8.32;;;4.95;;
62463;SDS011;48512;48.552;9.380;2023-02-28T02:02:29;8.25;;;4.70;;
62463;SDS011;48512;48.552;9.380;2023-02-28T02:05:00;10.20;;;5.25;;
62463;SDS011;48512;48.552;9.380;2023-02-28T02:07:31;8.98;;;4.72;;
62463;SDS011;48512;48.552;9.380;2023-02-28T02:10:00;10.10;;;5.00;;
62463;SDS011;48512;48.552;9.380;2023-02-28T02:15:12;6.20;;;4.18;;
62463;SDS011;48512;48.552;9.380;2023-02-28T02:18:04;10.48;;;5.47;;
62463;SDS011;48512;48.552;9.380;2023-02-28T02:26:39;8.35;;;4.80;;
62463;SDS011;48512;48.552;9.380;2023-02-28T02:40:58;8.30;;;4.72;;
62463;SDS011;48512;48.552;9.380;2023-02-28T02:43:58;8.85;;;5.47;;
62463;SDS011;48512;48.552;9.380;2023-02-28T02:46:27;9.50;;;5.30;;
62463;SDS011;48512;48.552;9.380;2023-02-28T02:48:57;9.60;;;5.22;;
62463;SDS011;48512;48.552;9.380;2023-02-28T02:51:27;13.02;;;5.72;;
62463;SDS011;48512;48.552;9.380;2023-02-28T02:53:57;12.43;;;6.22;;
62463;SDS011;48512;48.552;9.380;2023-02-28T02:56:30;11.32;;;5.72;;
62463;SDS011;48512;48.552;9.380;2023-02-28T02:59:06;10.35;;;6.25;;
62463;SDS011;48512;48.552;9.380;2023-02-28T03:01:34;12.95;;;5.95;;
62463;SDS011;48512;48.552;9.380;2023-02-28T03:04:02;11.52;;;6.03;;
62463;SDS011;48512;48.552;9.380;2023-02-28T03:06:32;12.07;;;5.75;;
62463;SDS011;48512;48.552;9.380;2023-02-28T03:08:58;10.82;;;5.25;;
62463;SDS011;48512;48.552;9.380;2023-02-28T03:11:25;12.35;;;6.07;;
62463;SDS011;48512;48.552;9.380;2023-02-28T03:27:11;12.85;;;6.38;;
62463;SDS011;48512;48.552;9.380;2023-02-28T03:29:46;10.05;;;6.20;;
62463;SDS011;48512;48.552;9.380;2023-02-28T03:32:18;9.00;;;5.90;;
62463;SDS011;48512;48.552;9.380;2023-02-28T03:34:56;10.55;;;5.63;;
62463;SDS011;48512;48.552;9.380;2023-02-28T03:37:23;11.23;;;5.85;;
62463;SDS011;48512;48.552;9.380;2023-02-28T03:40:02;10.35;;;5.72;;
62463;SDS011;48512;48.552;9.380;2023-02-28T03:42:34;10.07;;;6.22;;
62463;SDS011;48512;48.552;9.380;2023-02-28T03:45:21;12.35;;;6.30;;
62463;SDS011;48512;48.552;9.380;2023-02-28T03:50:23;11.63;;;6.72;;
62463;SDS011;48512;48.552;9.380;2023-02-28T03:55:31;11.95;;;6.35;;
62463;SDS011;48512;48.552;9.380;2023-02-28T04:00:41;9.38;;;5.55;;
62463;SDS011;48512;48.552;9.380;2023-02-28T04:03:11;13.18;;;6.40;;
62463;SDS011;48512;48.552;9.380;2023-02-28T04:05:53;10.13;;;6.05;;
62463;SDS011;48512;48.552;9.380;2023-02-28T04:08:20;12.75;;;6.50;;
62463;SDS011;48512;48.552;9.380;2023-02-28T04:10:49;11.02;;;6.05;;
62463;SDS011;48512;48.552;9.380;2023-02-28T04:13:23;10.35;;;6.15;;
62463;SDS011;48512;48.552;9.380;2023-02-28T04:15:48;11.77;;;6.68;;
62463;SDS011;48512;48.552;9.380;2023-02-28T04:18:14;11.55;;;6.90;;
62463;SDS011;48512;48.552;9.380;2023-02-28T04:20:39;11.45;;;6.60;;
62463;SDS011;48512;48.552;9.380;2023-02-28T04:23:04;13.35;;;7.13;;
62463;SDS011;48512;48.552;9.380;2023-02-28T04:25:30;13.07;;;7.15;;
62463;SDS011;48512;48.552;9.380;2023-02-28T04:27:55;15.05;;;7.82;;
62463;SDS011;48512;48.552;9.380;2023-02-28T04:30:20;28.20;;;9.63;;
62463;SDS011;48512;48.552;9.380;2023-02-28T04:32:46;24.90;;;10.45;;
62463;SDS011;48512;48.552;9.380;2023-02-28T04:35:11;20.55;;;8.65;;
62463;SDS011;48512;48.552;9.380;2023-02-28T04:37:37;15.82;;;7.32;;
62463;SDS011;48512;48.552;9.380;2023-02-28T04:40:02;13.27;;;6.78;;
62463;SDS011;48512;48.552;9.380;2023-02-28T04:42:28;12.52;;;7.00;;
62463;SDS011;48512;48.552;9.380;2023-02-28T04:45:00;13.73;;;7.50;;
62463;SDS011;48512;48.552;9.380;2023-02-28T04:47:29;42.30;;;12.07;;
62463;SDS011;48512;48.552;9.380;2023-02-28T04:49:55;34.72;;;11.18;;
62463;SDS011;48512;48.552;9.380;2023-02-28T04:52:20;23.08;;;9.13;;
62463;SDS011;48512;48.552;9.380;2023-02-28T04:54:46;28.38;;;10.50;;
62463;SDS011;48512;48.552;9.380;2023-02-28T04:57:11;56.58;;;14.90;;
62463;SDS011;48512;48.552;9.380;2023-02-28T04:59:37;34.25;;;12.98;;
62463;SDS011;48512;48.552;9.380;2023-02-28T05:02:03;18.30;;;8.75;;
62463;SDS011;48512;48.552;9.380;2023-02-28T05:04:32;19.45;;;8.43;;
62463;SDS011;48512;48.552;9.380;2023-02-28T05:06:59;20.38;;;8.40;;
62463;SDS011;48512;48.552;9.380;2023-02-28T05:09:25;16.67;;;8.35;;
62463;SDS011;48512;48.552;9.380;2023-02-28T05:11:50;15.30;;;7.90;;
62463;SDS011;48512;48.552;9.380;2023-02-28T05:14:16;19.95;;;8.52;;
62463;SDS011;48512;48.552;9.380;2023-02-28T05:16:41;16.42;;;7.95;;
62463;SDS011;48512;48.552;9.380;2023-02-28T05:19:07;19.35;;;8.18;;
62463;SDS011;48512;48.552;9.380;2023-02-28T05:21:33;20.13;;;8.95;;
62463;SDS011;48512;48.552;9.380;2023-02-28T05:24:04;15.48;;;8.73;;
62463;SDS011;48512;48.552;9.380;2023-02-28T05:26:39;17.05;;;8.35;;
62463;SDS011;48512;48.552;9.380;2023-02-28T05:29:06;21.20;;;9.30;;
62463;SDS011;48512;48.552;9.380;2023-02-28T05:31:32;20.55;;;8.68;;
62463;SDS011;48512;48.552;9.380;2023-02-28T05:33:58;16.85;;;8.63;;
62463;SDS011;48512;48.552;9.380;2023-02-28T05:36:23;20.20;;;9.13;;
62463;SDS011;48512;48.552;9.380;2023-02-28T05:38:49;21.90;;;10.10;;
62463;SDS011;48512;48.552;9.380;2023-02-28T05:41:16;17.13;;;9.38;;
62463;SDS011;48512;48.552;9.380;2023-02-28T05:43:42;18.27;;;9.15;;
62463;SDS011;48512;48.552;9.380;2023-02-28T05:46:11;16.67;;;9.20;;
62463;SDS011;48512;48.552;9.380;2023-02-28T05:48:38;16.88;;;8.70;;
62463;SDS011;48512;48.552;9.380;2023-02-28T05:51:04;16.25;;;8.65;;
62463;SDS011;48512;48.552;9.380;2023-02-28T05:53:30;19.58;;;9.23;;
62463;SDS011;48512;48.552;9.380;2023-02-28T05:55:56;23.10;;;8.70;;
62463;SDS011;48512;48.552;9.380;2023-02-28T05:58:22;20.17;;;9.07;;
62463;SDS011;48512;48.552;9.380;2023-02-28T06:00:48;21.75;;;8.57;;
62463;SDS011;48512;48.552;9.380;2023-02-28T06:03:14;19.17;;;9.25;;
62463;SDS011;48512;48.552;9.380;2023-02-28T06:05:39;17.58;;;9.13;;
62463;SDS011;48512;48.552;9.380;2023-02-28T06:08:05;19.00;;;9.52;;
62463;SDS011;48512;48.552;9.380;2023-02-28T06:10:34;19.35;;;9.55;;
62463;SDS011;48512;48.552;9.380;2023-02-28T06:13:00;19.95;;;9.88;;
62463;SDS011;48512;48.552;9.380;2023-02-28T06:15:27;21.20;;;9.88;;
62463;SDS011;48512;48.552;9.380;2023-02-28T06:17:53;30.83;;;9.98;;
62463;SDS011;48512;48.552;9.380;2023-02-28T06:20:21;34.35;;;10.52;;
62463;SDS011;48512;48.552;9.380;2023-02-28T06:22:46;21.88;;;10.45;;
62463;SDS011;48512;48.552;9.380;2023-02-28T06:25:11;23.35;;;11.00;;
62463;SDS011;48512;48.552;9.380;2023-02-28T06:27:37;22.52;;;9.93;;
62463;SDS011;48512;48.552;9.380;2023-02-28T06:30:02;23.48;;;11.40;;
62463;SDS011;48512;48.552;9.380;2023-02-28T06:32:28;25.83;;;11.30;;
62463;SDS011;48512;48.552;9.380;2023-02-28T06:34:54;22.55;;;10.10;;
62463;SDS011;48512;48.552;9.380;2023-02-28T06:37:21;27.42;;;12.02;;
62463;SDS011;48512;48.552;9.380;2023-02-28T06:39:46;29.95;;;11.10;;
62463;SDS011;48512;48.552;9.380;2023-02-28T06:42:11;24.63;;;11.48;;
62463;SDS011;48512;48.552;9.380;2023-02-28T06:44:38;23.63;;;11.15;;
62463;SDS011;48512;48.552;9.380;2023-02-28T06:47:04;26.23;;;11.45;;
62463;SDS011;48512;48.552;9.380;2023-02-28T06:49:31;26.23;;;11.93;;
62463;SDS011;48512;48.552;9.380;2023-02-28T06:51:58;27.23;;;13.25;;
62463;SDS011;48512;48.552;9.380;2023-02-28T06:54:24;24.10;;;11.50;;
62463;SDS011;48512;48.552;9.380;2023-02-28T06:56:49;28.92;;;12.45;;
62463;SDS011;48512;48.552;9.380;2023-02-28T06:59:15;27.42;;;12.07;;
62463;SDS011;48512;48.552;9.380;2023-02-28T07:01:41;29.08;;;13.13;;
62463;SDS011;48512;48.552;9.380;2023-02-28T07:04:06;30.83;;;12.68;;
62463;SDS011;48512;48.552;9.380;2023-02-28T07:06:32;30.90;;;12.02;;
62463;SDS011;48512;48.552;9.380;2023-02-28T07:08:57;30.00;;;12.30;;
62463;SDS011;48512;48.552;9.380;2023-02-28T07:11:24;28.83;;;12.23;;
62463;SDS011;48512;48.552;9.380;2023-02-28T07:13:52;26.67;;;11.50;;
62463;SDS011;48512;48.552;9.380;2023-02-28T07:16:19;30.15;;;12.55;;
62463;SDS011;48512;48.552;9.380;2023-02-28T07:18:44;34.05;;;12.95;;
62463;SDS011;48512;48.552;9.380;2023-02-28T07:21:10;36.10;;;12.80;;
62463;SDS011;48512;48.552;9.380;2023-02-28T07:23:36;32.00;;;11.43;;
62463;SDS011;48512;48.552;9.380;2023-02-28T07:26:06;25.00;;;11.18;;
62463;SDS011;48512;48.552;9.380;2023-02-28T07:31:05;29.00;;;12.38;;
62463;SDS011;48512;48.552;9.380;2023-02-28T07:33:31;29.83;;;12.30;;
62463;SDS011;48512;48.552;9.380;2023-02-28T07:36:03;30.27;;;12.27;;
62463;SDS011;48512;48.552;9.380;2023-02-28T07:38:30;24.70;;;11.07;;
62463;SDS011;48512;48.552;9.380;2023-02-28T07:40:58;27.02;;;11.52;;
62463;SDS011;48512;48.552;9.380;2023-02-28T07:43:23;25.92;;;11.55;;
62463;SDS011;48512;48.552;9.380;2023-02-28T07:45:49;29.88;;;12.00;;
62463;SDS011;48512;48.552;9.380;2023-02-28T07:48:14;28.77;;;12.00;;
62463;SDS011;48512;48.552;9.380;2023-02-28T07:50:39;27.63;;;12.68;;
62463;SDS011;48512;48.552;9.380;2023-02-28T07:53:05;27.77;;;12.25;;
62463;SDS011;48512;48.552;9.380;2023-02-28T07:55:30;27.90;;;12.00;;
62463;SDS011;48512;48.552;9.380;2023-02-28T07:57:56;29.55;;;12.63;;
62463;SDS011;48512;48.552;9.380;2023-02-28T08:00:22;22.40;;;11.20;;
62463;SDS011;48512;48.552;9.380;2023-02-28T08:02:48;28.70;;;12.35;;
62463;SDS011;48512;48.552;9.380;2023-02-28T08:05:14;26.63;;;12.35;;
62463;SDS011;48512;48.552;9.380;2023-02-28T08:07:39;26.92;;;12.60;;
62463;SDS011;48512;48.552;9.380;2023-02-28T08:10:05;28.70;;;12.35;;
62463;SDS011;48512;48.552;9.380;2023-02-28T08:12:31;29.67;;;13.35;;
62463;SDS011;48512;48.552;9.380;2023-02-28T08:14:56;35.03;;;12.60;;
62463;SDS011;48512;48.552;9.380;2023-02-28T08:17:22;30.25;;;13.30;;
62463;SDS011;48512;48.552;9.380;2023-02-28T08:19:47;26.95;;;11.77;;
62463;SDS011;48512;48.552;9.380;2023-02-28T08:22:13;28.13;;;12.07;;
62463;SDS011;48512;48.552;9.380;2023-02-28T08:24:38;29.02;;;11.70;;
62463;SDS011;48512;48.552;9.380;2023-02-28T08:27:06;30.92;;;12.10;;
62463;SDS011;48512;48.552;9.380;2023-02-28T08:29:32;30.27;;;12.38;;
62463;SDS011;48512;48.552;9.380;2023-02-28T08:31:57;30.58;;;11.95;;
62463;SDS011;48512;48.552;9.380;2023-02-28T08:34:23;30.60;;;13.52;;
62463;SDS011;48512;48.552;9.380;2023-02-28T08:36:49;32.83;;;13.48;;
62463;SDS011;48512;48.552;9.380;2023-02-28T08:39:14;26.52;;;12.77;;
62463;SDS011;48512;48.552;9.380;2023-02-28T08:41:41;26.85;;;11.40;;
62463;SDS011;48512;48.552;9.380;2023-02-28T08:44:07;25.73;;;11.63;;
62463;SDS011;48512;48.552;9.380;2023-02-28T08:46:33;31.20;;;12.48;;
62463;SDS011;48512;48.552;9.380;2023-02-28T08:48:58;24.33;;;11.85;;
62463;SDS011;48512;48.552;9.380;2023-02-28T08:51:26;24.23;;;12.07;;
62463;SDS011;48512;48.552;9.380;2023-02-28T08:53:53;26.42;;;11.90;;
62463;SDS011;48512;48.552;9.380;2023-02-28T08:56:20;41.90;;;16.50;;
62463;SDS011;48512;48.552;9.380;2023-02-28T08:58:47;30.08;;;13.93;;
62463;SDS011;48512;48.552;9.380;2023-02-28T09:01:14;30.35;;;12.27;;
62463;SDS011;48512;48.552;9.380;2023-02-28T09:03:40;39.42;;;16.40;;
62463;SDS011;48512;48.552;9.380;2023-02-28T09:06:07;36.10;;;14.52;;
62463;SDS011;48512;48.552;9.380;2023-02-28T09:08:33;28.45;;;12.40;;
62463;SDS011;48512;48.552;9.380;2023-02-28T09:10:59;28.13;;;12.32;;
62463;SDS011;48512;48.552;9.380;2023-02-28T09:13:25;48.72;;;16.13;;
62463;SDS011;48512;48.552;9.380;2023-02-28T09:15:52;45.67;;;16.95;;
62463;SDS011;48512;48.552;9.380;2023-02-28T09:18:18;26.88;;;13.18;;
62463;SDS011;48512;48.552;9.380;2023-02-28T09:20:43;26.55;;;11.85;;
62463;SDS011;48512;48.552;9.380;2023-02-28T09:23:10;28.42;;;13.43;;
62463;SDS011;48512;48.552;9.380;2023-02-28T09:25:37;31.38;;;14.05;;
62463;SDS011;48512;48.552;9.380;2023-02-28T09:28:03;30.33;;;14.48;;
62463;SDS011;48512;48.552;9.380;2023-02-28T09:30:29;31.88;;;14.38;;
62463;SDS011;48512;48.552;9.380;2023-02-28T09:32:55;29.13;;;12.82;;
62463;SDS011;48512;48.552;9.380;2023-02-28T09:35:21;35.58;;;14.80;;
62463;SDS011;48512;48.552;9.380;2023-02-28T09:37:48;40.13;;;18.08;;
62463;SDS011;48512;48.552;9.380;2023-02-28T09:40:15;33.88;;;16.20;;
62463;SDS011;48512;48.552;9.380;2023-02-28T09:42:44;30.52;;;16.13;;
62463;SDS011;48512;48.552;9.380;2023-02-28T09:45:16;30.77;;;13.93;;
62463;SDS011;48512;48.552;9.380;2023-02-28T09:47:46;29.00;;;14.65;;
62463;SDS011;48512;48.552;9.380;2023-02-28T09:50:22;24.88;;;13.52;;
62463;SDS011;48512;48.552;9.380;2023-02-28T09:52:55;29.02;;;13.45;;
62463;SDS011;48512;48.552;9.380;2023-02-28T09:55:27;27.17;;;13.48;;
62463;SDS011;48512;48.552;9.380;2023-02-28T09:57:56;24.85;;;12.10;;
62463;SDS011;48512;48.552;9.380;2023-02-28T10:00:28;28.70;;;13.70;;
62463;SDS011;48512;48.552;9.380;2023-02-28T10:05:33;29.67;;;13.15;;
62463;SDS011;48512;48.552;9.380;2023-02-28T10:08:18;37.53;;;17.23;;
62463;SDS011;48512;48.552;9.380;2023-02-28T10:10:51;30.75;;;15.07;;
62463;SDS011;48512;48.552;9.380;2023-02-28T10:15:59;25.20;;;12.70;;
62463;SDS011;48512;48.552;9.380;2023-02-28T10:18:34;23.30;;;12.43;;
62463;SDS011;48512;48.552;9.380;2023-02-28T10:21:08;27.70;;;13.05;;
62463;SDS011;48512;48.552;9.380;2023-02-28T10:24:13;29.23;;;13.07;;
62463;SDS011;48512;48.552;9.380;2023-02-28T10:26:41;26.10;;;13.30;;
62463;SDS011;48512;48.552;9.380;2023-02-28T10:29:09;24.38;;;13.13;;
62463;SDS011;48512;48.552;9.380;2023-02-28T10:31:35;24.65;;;13.43;;
62463;SDS011;48512;48.552;9.380;2023-02-28T10:34:00;33.40;;;14.73;;
62463;SDS011;48512;48.552;9.380;2023-02-28T10:36:26;22.75;;;12.73;;
62463;SDS011;48512;48.552;9.380;2023-02-28T10:38:53;27.48;;;12.50;;
62463;SDS011;48512;48.552;9.380;2023-02-28T10:43:51;22.33;;;11.70;;
62463;SDS011;48512;48.552;9.380;2023-02-28T10:46:18;23.30;;;12.57;;
62463;SDS011;48512;48.552;9.380;2023-02-28T10:48:59;22.08;;;11.70;;
62463;SDS011;48512;48.552;9.380;2023-02-28T10:51:33;21.27;;;12.35;;
62463;SDS011;48512;48.552;9.380;2023-02-28T10:54:01;22.15;;;12.45;;
62463;SDS011;48512;48.552;9.380;2023-02-28T10:56:28;25.30;;;12.48;;
62463;SDS011;48512;48.552;9.380;2023-02-28T11:01:38;26.50;;;12.93;;
62463;SDS011;48512;48.552;9.380;2023-02-28T11:04:19;22.88;;;13.05;;
62463;SDS011;48512;48.552;9.380;2023-02-28T11:07:05;24.20;;;12.07;;
62463;SDS011;48512;48.552;9.380;2023-02-28T11:09:41;25.95;;;12.93;;
62463;SDS011;48512;48.552;9.380;2023-02-28T11:12:20;25.98;;;12.20;;
62463;SDS011;48512;48.552;9.380;2023-02-28T11:14:47;24.48;;;12.88;;
62463;SDS011;48512;48.552;9.380;2023-02-28T11:17:22;24.17;;;12.52;;
62463;SDS011;48512;48.552;9.380;2023-02-28T11:19:52;20.60;;;12.10;;
62463;SDS011;48512;48.552;9.380;2023-02-28T11:22:22;23.17;;;12.95;;
62463;SDS011;48512;48.552;9.380;2023-02-28T11:24:54;22.23;;;13.05;;
62463;SDS011;48512;48.552;9.380;2023-02-28T11:29:50;24.40;;;12.30;;
62463;SDS011;48512;48.552;9.380;2023-02-28T11:32:20;27.83;;;14.40;;
62463;SDS011;48512;48.552;9.380;2023-02-28T11:34:47;28.15;;;13.70;;
62463;SDS011;48512;48.552;9.380;2023-02-28T11:39:52;28.42;;;13.73;;
62463;SDS011;48512;48.552;9.380;2023-02-28T11:42:27;29.10;;;15.65;;
62463;SDS011;48512;48.552;9.380;2023-02-28T11:45:50;30.15;;;17.60;;
62463;SDS011;48512;48.552;9.380;2023-02-28T11:48:27;23.90;;;14.40;;
62463;SDS011;48512;48.552;9.380;2023-02-28T11:51:10;26.70;;;15.07;;
62463;SDS011;48512;48.552;9.380;2023-02-28T11:56:47;23.48;;;13.35;;
62463;SDS011;48512;48.552;9.380;2023-02-28T12:13:20;22.35;;;14.45;;
62463;SDS011;48512;48.552;9.380;2023-02-28T12:24:47;22.58;;;13.02;;
62463;SDS011;48512;48.552;9.380;2023-02-28T12:27:31;19.98;;;12.93;;
62463;SDS011;48512;48.552;9.380;2023-02-28T12:30:21;20.50;;;13.25;;
62463;SDS011;48512;48.552;9.380;2023-02-28T12:33:12;22.70;;;13.02;;
62463;SDS011;48512;48.552;9.380;2023-02-28T12:35:44;22.20;;;13.40;;
62463;SDS011;48512;48.552;9.380;2023-02-28T12:39:22;22.17;;;13.98;;
62463;SDS011;48512;48.552;9.380;2023-02-28T12:44:17;30.10;;;19.15;;
62463;SDS011;48512;48.552;9.380;2023-02-28T12:49:21;21.52;;;13.32;;
62463;SDS011;48512;48.552;9.380;2023-02-28T12:52:04;24.52;;;13.60;;
62463;SDS011;48512;48.552;9.380;2023-02-28T12:57:18;22.67;;;12.40;;
62463;SDS011;48512;48.552;9.380;2023-02-28T12:59:57;20.58;;;12.40;;
62463;SDS011;48512;48.552;9.380;2023-02-28T13:10:37;24.05;;;14.75;;
62463;SDS011;48512;48.552;9.380;2023-02-28T13:13:32;17.70;;;11.55;;
62463;SDS011;48512;48.552;9.380;2023-02-28T13:16:02;20.05;;;13.32;;
62463;SDS011;48512;48.552;9.380;2023-02-28T13:21:08;18.90;;;12.17;;
62463;SDS011;48512;48.552;9.380;2023-02-28T13:26:05;21.83;;;12.93;;
62463;SDS011;48512;48.552;9.380;2023-02-28T13:47:43;16.02;;;9.80;;
62463;SDS011;48512;48.552;9.380;2023-02-28T13:52:48;13.77;;;8.98;;
62463;SDS011;48512;48.552;9.380;2023-02-28T14:06:48;17.55;;;11.60;;
62463;SDS011;48512;48.552;9.380;2023-02-28T14:15:23;27.23;;;14.45;;
62463;SDS011;48512;48.552;9.380;2023-02-28T14:18:10;27.15;;;13.63;;
62463;SDS011;48512;48.552;9.380;2023-02-28T14:20:38;30.17;;;14.15;;
62463;SDS011;48512;48.552;9.380;2023-02-28T14:23:40;27.55;;;15.73;;
62463;SDS011;48512;48.552;9.380;2023-02-28T14:31:48;23.98;;;14.05;;
62463;SDS011;48512;48.552;9.380;2023-02-28T14:34:42;19.85;;;12.95;;
62463;SDS011;48512;48.552;9.380;2023-02-28T14:37:23;26.30;;;14.95;;
62463;SDS011;48512;48.552;9.380;2023-02-28T14:39:53;25.10;;;13.93;;
62463;SDS011;48512;48.552;9.380;2023-02-28T14:42:34;23.63;;;13.88;;
62463;SDS011;48512;48.552;9.380;2023-02-28T14:45:03;22.23;;;13.10;;
62463;SDS011;48512;48.552;9.380;2023-02-28T14:47:32;29.60;;;13.30;;
62463;SDS011;48512;48.552;9.380;2023-02-28T14:50:00;23.52;;;13.77;;
62463;SDS011;48512;48.552;9.380;2023-02-28T14:52:27;21.77;;;12.77;;
62463;SDS011;48512;48.552;9.380;2023-02-28T14:55:03;26.10;;;12.98;;
62463;SDS011;48512;48.552;9.380;2023-02-28T14:57:34;23.02;;;13.30;;
62463;SDS011;48512;48.552;9.380;2023-02-28T15:00:09;24.00;;;13.70;;
62463;SDS011;48512;48.552;9.380;2023-02-28T15:02:39;22.45;;;12.85;;
62463;SDS011;48512;48.552;9.380;2023-02-28T15:07:34;19.25;;;12.35;;
62463;SDS011;48512;48.552;9.380;2023-02-28T15:10:22;19.35;;;12.65;;
62463;SDS011;48512;48.552;9.380;2023-02-28T15:12:57;23.33;;;12.27;;
62463;SDS011;48512;48.552;9.380;2023-02-28T15:15:26;23.67;;;13.38;;
62463;SDS011;48512;48.552;9.380;2023-02-28T15:17:58;19.63;;;11.45;;
62463;SDS011;48512;48.552;9.380;2023-02-28T15:20:24;21.55;;;12.98;;
62463;SDS011;48512;48.552;9.380;2023-02-28T15:22:51;22.65;;;12.60;;
62463;SDS011;48512;48.552;9.380;2023-02-28T15:25:21;21.67;;;13.00;;
62463;SDS011;48512;48.552;9.380;2023-02-28T15:27:49;18.17;;;11.43;;
62463;SDS011;48512;48.552;9.380;2023-02-28T15:30:18;18.42;;;10.98;;
62463;SDS011;48512;48.552;9.380;2023-02-28T15:33:01;20.80;;;11.27;;
62463;SDS011;48512;48.552;9.380;2023-02-28T15:35:47;22.33;;;10.95;;
62463;SDS011;48512;48.552;9.380;2023-02-28T15:38:23;20.88;;;11.30;;
62463;SDS011;48512;48.552;9.380;2023-02-28T15:40:58;22.13;;;12.63;;
62463;SDS011;48512;48.552;9.380;2023-02-28T15:43:25;20.35;;;11.90;;
62463;SDS011;48512;48.552;9.380;2023-02-28T15:49:17;18.70;;;10.73;;
62463;SDS011;48512;48.552;9.380;2023-02-28T15:51:33;19.30;;;10.73;;
62463;SDS011;48512;48.552;9.380;2023-02-28T15:54:04;22.33;;;11.93;;
62463;SDS011;48512;48.552;9.380;2023-02-28T15:56:40;20.60;;;11.60;;
62463;SDS011;48512;48.552;9.380;2023-02-28T16:01:43;21.77;;;11.70;;
62463;SDS011;48512;48.552;9.380;2023-02-28T16:04:16;17.52;;;10.68;;
62463;SDS011;48512;48.552;9.380;2023-02-28T16:09:25;19.02;;;10.57;;
62463;SDS011;48512;48.552;9.380;2023-02-28T16:11:52;21.38;;;11.75;;
62463;SDS011;48512;48.552;9.380;2023-02-28T16:14:20;22.58;;;11.30;;
62463;SDS011;48512;48.552;9.380;2023-02-28T16:16:52;17.58;;;9.20;;
62463;SDS011;48512;48.552;9.380;2023-02-28T16:19:21;16.40;;;10.27;;
62463;SDS011;48512;48.552;9.380;2023-02-28T16:21:48;18.98;;;10.65;;
62463;SDS011;48512;48.552;9.380;2023-02-28T16:24:14;15.90;;;10.57;;
62463;SDS011;48512;48.552;9.380;2023-02-28T16:26:40;17.70;;;10.60;;
62463;SDS011;48512;48.552;9.380;2023-02-28T16:29:08;18.33;;;11.25;;
62463;SDS011;48512;48.552;9.380;2023-02-28T16:31:37;21.40;;;12.38;;
62463;SDS011;48512;48.552;9.380;2023-02-28T16:34:03;23.30;;;12.20;;
62463;SDS011;48512;48.552;9.380;2023-02-28T16:36:30;15.95;;;10.45;;
62463;SDS011;48512;48.552;9.380;2023-02-28T16:38:55;18.88;;;10.43;;
62463;SDS011;48512;48.552;9.380;2023-02-28T16:41:22;19.20;;;10.95;;
62463;SDS011;48512;48.552;9.380;2023-02-28T16:43:51;17.98;;;10.93;;
62463;SDS011;48512;48.552;9.380;2023-02-28T16:46:18;18.88;;;11.10;;
62463;SDS011;48512;48.552;9.380;2023-02-28T16:48:45;20.88;;;11.38;;
62463;SDS011;48512;48.552;9.380;2023-02-28T16:51:14;19.95;;;10.48;;
62463;SDS011;48512;48.552;9.380;2023-02-28T16:53:41;16.65;;;10.32;;
62463;SDS011;48512;48.552;9.380;2023-02-28T16:56:08;17.20;;;10.02;;
62463;SDS011;48512;48.552;9.380;2023-02-28T16:58:43;21.48;;;10.32;;
62463;SDS011;48512;48.552;9.380;2023-02-28T17:01:08;17.90;;;10.50;;
62463;SDS011;48512;48.552;9.380;2023-02-28T17:03:33;18.00;;;10.68;;
62463;SDS011;48512;48.552;9.380;2023-02-28T17:06:01;17.73;;;10.18;;
62463;SDS011;48512;48.552;9.380;2023-02-28T17:08:27;21.73;;;11.02;;
62463;SDS011;48512;48.552;9.380;2023-02-28T17:10:54;23.55;;;11.68;;
62463;SDS011;48512;48.552;9.380;2023-02-28T17:13:19;24.80;;;13.05;;
62463;SDS011;48512;48.552;9.380;2023-02-28T17:15:45;18.48;;;11.25;;
62463;SDS011;48512;48.552;9.380;2023-02-28T17:18:13;98.50;;;27.60;;
62463;SDS011;48512;48.552;9.380;2023-02-28T17:20:41;101.55;;;30.60;;
62463;SDS011;48512;48.552;9.380;2023-02-28T17:23:07;40.83;;;17.65;;
62463;SDS011;48512;48.552;9.380;2023-02-28T17:25:33;36.83;;;16.33;;